Time;durP1;ratioP1;P1;durP2;ratioP2;P2;SDS_P1;SDS_P2;PMS_P1;PMS_P2;Temp;Humidity;BMP_temperature;BMP_pressure;BME280_temperature;BME280_humidity;BME280_pressure;Samples;Min_cycle;Max_cycle;Signal;HPM_P1;HPM_P2
2021/06/14 00:01:54;;;;;;;7.20;5.30;;;;;;;12.42;40.06;102058.19;5002858;27;97678;-71
2021/06/14 00:04:21;;;;;;;5.95;4.70;;;;;;;12.38;40.01;102058.94;5020520;27;99173;-71
2021/06/14 00:06:49;;;;;;;6.38;5.00;;;;;;;12.34;40.10;102054.34;5017337;27;97905;-71
2021/06/14 00:09:20;;;;;;;7.25;4.85;;;;;;;12.29;40.34;102058.63;5018525;27;96929;-70
2021/06/14 00:11:50;;;;;;;5.47;4.55;;;;;;;12.25;40.37;102051.38;5018835;27;97484;-72
2021/06/14 00:14:18;;;;;;;10.07;5.85;;;;;;;12.22;40.74;102059.28;5013586;27;99062;-72
2021/06/14 00:16:46;;;;;;;11.68;5.47;;;;;;;12.16;40.83;102052.81;4985116;27;100526;-72
2021/06/14 00:19:14;;;;;;;8.60;4.72;;;;;;;12.12;40.84;102058.94;5017728;27;98972;-72
2021/06/14 00:21:42;;;;;;;9.10;5.55;;;;;;;12.13;40.86;102058.06;5017283;27;97676;-71
2021/06/14 00:24:10;;;;;;;10.82;5.35;;;;;;;12.11;40.94;102061.53;5015021;27;98131;-71
2021/06/14 00:26:38;;;;;;;7.03;5.57;;;;;;;12.08;41.01;102051.66;4999552;27;100951;-72
2021/06/14 00:29:07;;;;;;;5.97;4.95;;;;;;;12.07;41.14;102049.84;5018528;27;98660;-71
2021/06/14 00:31:35;;;;;;;8.52;4.80;;;;;;;12.05;41.30;102054.19;5019983;27;99047;-73
2021/06/14 00:34:03;;;;;;;8.55;4.97;;;;;;;12.01;41.48;102051.38;5019895;27;97730;-71
2021/06/14 00:36:31;;;;;;;6.65;4.47;;;;;;;11.97;41.62;102052.13;5020227;27;98281;-72
2021/06/14 00:38:59;;;;;;;8.23;5.10;;;;;;;11.93;41.61;102043.09;5002593;27;98062;-72
2021/06/14 00:41:26;;;;;;;9.25;4.60;;;;;;;11.91;41.77;102039.47;5019453;27;97676;-71
2021/06/14 00:43:55;;;;;;;9.60;5.53;;;;;;;11.89;41.80;102057.19;5000144;27;99402;-72
2021/06/14 00:46:24;;;;;;;10.15;5.47;;;;;;;11.88;41.87;102055.38;5022196;27;99074;-72
2021/06/14 00:48:52;;;;;;;9.20;5.18;;;;;;;11.86;42.04;102045.50;5020523;27;97621;-72
2021/06/14 00:51:21;;;;;;;8.20;4.65;;;;;;;11.84;42.08;102052.53;5005129;28;97051;-72
2021/06/14 00:53:56;;;;;;;5.82;4.85;;;;;;;11.82;42.10;102049.81;4999805;28;98300;-72
2021/06/14 00:56:26;;;;;;;6.40;4.70;;;;;;;11.80;42.27;102054.19;5021443;27;99300;-71
2021/06/14 00:58:54;;;;;;;7.90;4.82;;;;;;;11.77;42.25;102054.09;5005544;28;98992;-72
2021/06/14 01:01:23;;;;;;;5.50;4.90;;;;;;;11.75;42.24;102055.78;5004267;28;97894;-72
2021/06/14 01:03:54;;;;;;;5.47;4.65;;;;;;;11.72;42.25;102061.03;5021427;27;97831;-71
2021/06/14 01:06:22;;;;;;;9.52;5.47;;;;;;;11.72;42.49;102046.78;5020034;27;99803;-72
2021/06/14 01:08:51;;;;;;;7.68;4.68;;;;;;;11.69;42.60;102041.34;5021701;27;97262;-72
2021/06/14 01:11:26;;;;;;;5.57;4.47;;;;;;;11.64;42.78;102048.25;5004545;28;98562;-72
2021/06/14 01:13:59;;;;;;;6.68;4.63;;;;;;;11.60;42.82;102047.22;5024484;27;98289;-72
2021/06/14 01:16:36;;;;;;;7.55;5.20;;;;;;;11.58;43.04;102046.25;5021047;27;98749;-72
2021/06/14 01:19:10;;;;;;;7.30;4.97;;;;;;;11.57;42.84;102041.78;4999172;27;97700;-71
2021/06/14 01:21:44;;;;;;;8.43;5.10;;;;;;;11.54;43.05;102047.00;5025228;27;98275;-72
2021/06/14 01:24:38;;;;;;;5.70;4.80;;;;;;;11.42;43.31;102038.53;5024557;27;99695;-72
2021/06/14 01:27:23;;;;;;;7.95;5.10;;;;;;;11.42;43.47;102040.28;5022386;27;99485;-72
2021/06/14 01:29:51;;;;;;;8.35;5.22;;;;;;;11.41;43.15;102039.41;5021972;27;97786;-72
2021/06/14 01:32:19;;;;;;;6.72;4.50;;;;;;;11.40;43.35;102036.66;5020640;27;97111;-72
2021/06/14 01:34:47;;;;;;;12.93;5.78;;;;;;;11.38;43.38;102036.59;5020460;27;97792;-72
2021/06/14 01:37:17;;;;;;;8.85;5.03;;;;;;;11.36;43.38;102040.97;5005127;27;99648;-72
2021/06/14 01:39:47;;;;;;;7.95;4.68;;;;;;;11.32;43.51;102033.72;5003768;27;97493;-72
2021/06/14 01:42:18;;;;;;;8.93;5.10;;;;;;;11.30;43.76;102029.13;5003293;28;96929;-72
2021/06/14 01:44:49;;;;;;;7.60;4.90;;;;;;;11.28;43.88;102026.44;5004964;28;101427;-72
2021/06/14 01:47:20;;;;;;;9.48;5.38;;;;;;;11.26;43.96;102022.78;5002162;28;98838;-72
2021/06/14 01:49:48;;;;;;;7.15;4.93;;;;;;;11.24;44.09;102024.47;5004106;28;97311;-72
2021/06/14 01:52:21;;;;;;;5.55;4.95;;;;;;;11.19;44.19;102015.41;5022226;27;97407;-72
2021/06/14 01:54:53;;;;;;;7.18;5.05;;;;;;;11.16;44.38;102012.63;5018854;27;99921;-72
2021/06/14 01:57:33;;;;;;;5.70;4.55;;;;;;;11.11;44.33;102007.13;5035221;27;97809;-71
2021/06/14 02:00:17;;;;;;;8.48;5.25;;;;;;;11.08;44.46;102011.44;5010799;27;97218;-72
2021/06/14 02:02:58;;;;;;;8.45;5.53;;;;;;;11.07;44.59;102014.94;5005622;28;97202;-71
2021/06/14 02:05:45;;;;;;;8.45;5.05;;;;;;;11.02;44.60;102009.44;5018985;27;98567;-72
2021/06/14 02:08:16;;;;;;;5.53;5.00;;;;;;;10.98;44.69;102009.25;5020549;27;100768;-71
2021/06/14 02:10:45;;;;;;;8.18;5.18;;;;;;;10.95;44.62;102012.72;5021091;27;98926;-72
2021/06/14 02:13:14;;;;;;;5.93;4.78;;;;;;;10.89;44.87;102012.47;5020603;27;97678;-72
2021/06/14 02:15:43;;;;;;;7.82;5.00;;;;;;;10.84;44.79;102021.13;5015649;27;98560;-72
2021/06/14 02:18:14;;;;;;;11.45;5.78;;;;;;;10.80;44.85;102016.50;5002006;27;98451;-71
2021/06/14 02:20:46;;;;;;;9.10;5.47;;;;;;;10.74;45.00;102008.31;5020160;27;97411;-72
2021/06/14 02:23:14;;;;;;;8.32;5.60;;;;;;;10.71;45.08;102013.50;5019137;27;97739;-72
2021/06/14 02:25:43;;;;;;;8.40;5.35;;;;;;;10.68;45.03;102019.63;5003199;27;99346;-72
2021/06/14 02:28:13;;;;;;;8.77;5.60;;;;;;;10.66;44.99;102009.75;4992366;27;99678;-72
2021/06/14 02:30:41;;;;;;;6.65;4.93;;;;;;;10.63;44.92;102009.63;5022033;27;97910;-72
2021/06/14 02:33:09;;;;;;;10.45;6.75;;;;;;;10.64;45.06;102006.09;5019267;27;98265;-72
2021/06/14 02:35:42;;;;;;;8.10;5.75;;;;;;;10.63;45.04;102007.84;5021152;27;100345;-72
2021/06/14 02:38:11;;;;;;;7.63;5.05;;;;;;;10.63;44.80;102009.63;4996794;28;100450;-72
2021/06/14 02:40:41;;;;;;;7.32;5.20;;;;;;;10.62;45.00;102013.13;5021967;27;96682;-71
2021/06/14 02:43:10;;;;;;;5.85;5.05;;;;;;;10.60;44.87;102001.50;4997971;28;97748;-71
2021/06/14 02:45:41;;;;;;;6.35;5.57;;;;;;;10.61;44.90;102011.31;5002847;28;99763;-72
2021/06/14 02:48:23;;;;;;;7.07;5.07;;;;;;;10.59;44.92;102005.94;5003886;27;101270;-71
2021/06/14 02:50:53;;;;;;;7.03;5.70;;;;;;;10.59;44.85;101995.28;5020512;27;97610;-71
2021/06/14 02:53:24;;;;;;;6.63;5.40;;;;;;;10.59;44.83;101999.69;5021123;27;96870;-72
2021/06/14 02:55:55;;;;;;;8.20;4.90;;;;;;;10.56;44.95;101997.81;5002567;27;99572;-72
2021/06/14 02:58:27;;;;;;;7.40;5.45;;;;;;;10.56;45.08;101996.88;5019603;27;100225;-72
2021/06/14 03:00:57;;;;;;;7.20;4.82;;;;;;;10.56;45.17;101991.56;5020321;27;97257;-72
2021/06/14 03:03:25;;;;;;;6.68;5.55;;;;;;;10.53;45.28;101989.72;5019310;27;97434;-72
2021/06/14 03:05:54;;;;;;;7.88;5.53;;;;;;;10.50;45.38;101981.63;4993202;27;98154;-72
2021/06/14 03:08:22;;;;;;;9.65;5.65;;;;;;;10.49;45.49;101978.88;5002498;27;99701;-72
2021/06/14 03:10:51;;;;;;;6.65;4.80;;;;;;;10.48;45.56;101982.38;5001743;27;97028;-72
2021/06/14 03:13:19;;;;;;;8.20;5.63;;;;;;;10.48;45.52;101987.72;5021470;27;97261;-72
2021/06/14 03:15:47;;;;;;;9.90;5.53;;;;;;;10.45;45.51;101985.81;4996438;27;101920;-72
2021/06/14 03:18:21;;;;;;;7.75;4.65;;;;;;;10.44;45.64;101985.75;5020992;27;97945;-72
2021/06/14 03:20:51;;;;;;;9.35;6.38;;;;;;;10.43;45.58;101978.63;5020504;27;97557;-71
2021/06/14 03:23:19;;;;;;;9.60;5.47;;;;;;;10.40;45.62;101978.47;5002962;28;97401;-72
2021/06/14 03:25:47;;;;;;;8.60;5.25;;;;;;;10.36;45.86;101977.44;5000281;28;98256;-72
2021/06/14 03:28:16;;;;;;;6.55;4.68;;;;;;;10.38;46.05;101974.81;5018091;27;100232;-72
2021/06/14 03:30:44;;;;;;;7.35;5.38;;;;;;;10.37;45.93;101978.34;5021369;27;97372;-73
2021/06/14 03:33:16;;;;;;;8.98;5.53;;;;;;;10.35;46.15;101972.06;5021532;27;98030;-72
2021/06/14 03:35:47;;;;;;;7.88;6.18;;;;;;;10.33;46.21;101973.72;5019473;27;98607;-72
2021/06/14 03:38:14;;;;;;;6.13;5.38;;;;;;;10.31;46.31;101962.13;5020197;27;101263;-72
2021/06/14 03:40:42;;;;;;;9.32;6.50;;;;;;;10.32;46.46;101964.84;5000914;28;97078;-71
2021/06/14 03:43:10;;;;;;;9.63;5.85;;;;;;;10.30;46.50;101966.56;5007883;28;96911;-71
2021/06/14 03:45:38;;;;;;;10.27;6.18;;;;;;;10.29;46.48;101974.44;5021794;27;97663;-71
2021/06/14 03:48:06;;;;;;;6.60;5.72;;;;;;;10.28;46.57;101973.56;5022128;27;99409;-71
2021/06/14 03:50:34;;;;;;;9.05;5.30;;;;;;;10.28;46.56;101975.31;5021600;27;97053;-70
2021/06/14 03:53:04;;;;;;;19.48;10.70;;;;;;;10.28;46.74;101969.97;5022321;27;98257;-71
2021/06/14 03:55:32;;;;;;;14.00;8.32;;;;;;;10.29;46.67;101980.69;5017966;27;100614;-71
2021/06/14 03:58:00;;;;;;;7.47;5.68;;;;;;;10.30;46.67;101973.63;5020717;27;97881;-70
2021/06/14 04:00:28;;;;;;;7.07;5.43;;;;;;;10.29;46.60;101969.13;5019756;27;98746;-71
2021/06/14 04:02:57;;;;;;;8.88;5.97;;;;;;;10.29;46.65;101969.13;4994426;27;97992;-71
2021/06/14 04:05:34;;;;;;;8.25;5.78;;;;;;;10.30;46.56;101965.63;4999897;27;99050;-71
2021/06/14 04:08:24;;;;;;;10.15;5.57;;;;;;;10.29;46.63;101962.06;5016208;27;98302;-71
2021/06/14 04:10:52;;;;;;;7.30;5.47;;;;;;;10.31;46.44;101971.00;5020151;27;97925;-72
2021/06/14 04:13:20;;;;;;;7.53;5.40;;;;;;;10.32;46.48;101963.94;5017193;27;97669;-73
2021/06/14 04:15:48;;;;;;;9.23;5.93;;;;;;;10.34;46.67;101962.25;4994791;28;99883;-72
2021/06/14 04:18:16;;;;;;;11.05;6.80;;;;;;;10.36;46.46;101973.84;5019983;27;99122;-71
2021/06/14 04:20:44;;;;;;;12.95;9.75;;;;;;;10.38;46.46;101969.50;5016084;27;97355;-73
2021/06/14 04:23:12;;;;;;;8.95;6.68;;;;;;;10.41;46.46;101964.31;5018552;27;96967;-73
2021/06/14 04:25:41;;;;;;;8.13;5.90;;;;;;;10.43;46.44;101960.00;5015202;27;99929;-72
2021/06/14 04:28:09;;;;;;;7.70;5.78;;;;;;;10.47;46.53;101964.59;5017865;27;98156;-72
2021/06/14 04:30:37;;;;;;;9.27;6.35;;;;;;;10.50;46.43;101962.06;5020993;27;97844;-72
2021/06/14 04:33:05;;;;;;;7.70;6.10;;;;;;;10.53;46.39;101964.84;5018089;27;97769;-72
2021/06/14 04:35:33;;;;;;;9.18;5.65;;;;;;;10.56;46.27;101954.31;5018337;27;99831;-72
2021/06/14 04:38:01;;;;;;;9.57;5.43;;;;;;;10.57;46.25;101957.06;5018078;27;96883;-72
2021/06/14 04:40:30;;;;;;;9.27;5.72;;;;;;;10.59;46.21;101959.78;5019154;27;96827;-72
2021/06/14 04:42:59;;;;;;;14.48;6.53;;;;;;;10.61;46.10;101955.41;5019360;27;97333;-72
2021/06/14 04:45:28;;;;;;;9.32;5.28;;;;;;;10.62;45.88;101951.91;5018743;27;96981;-72
2021/06/14 04:47:56;;;;;;;9.38;6.18;;;;;;;10.65;45.71;101960.91;5016040;27;99207;-72
2021/06/14 04:50:24;;;;;;;12.90;5.90;;;;;;;10.67;45.66;101968.94;5016978;27;97938;-72
2021/06/14 04:52:52;;;;;;;10.63;6.57;;;;;;;10.69;45.37;101960.19;5017120;27;97268;-74
2021/06/14 04:55:20;;;;;;;9.77;5.82;;;;;;;10.73;45.50;101961.22;5008973;27;98872;-73
2021/06/14 04:57:48;;;;;;;9.35;5.90;;;;;;;10.76;45.36;101951.59;5018374;27;97889;-74
2021/06/14 05:00:17;;;;;;;13.27;6.45;;;;;;;10.82;45.38;101953.59;5015272;27;96887;-73
2021/06/14 05:02:45;;;;;;;13.05;6.45;;;;;;;10.86;45.18;101947.53;5018301;27;97389;-71
2021/06/14 05:05:14;;;;;;;8.85;5.78;;;;;;;10.90;45.26;101946.81;5017318;27;100574;-73
2021/06/14 05:07:42;;;;;;;12.52;6.53;;;;;;;10.95;45.02;101956.78;5015207;27;98423;-73
2021/06/14 05:10:11;;;;;;;7.95;5.40;;;;;;;11.01;45.07;101956.13;5018326;27;96888;-72
2021/06/14 05:12:39;;;;;;;11.65;5.65;;;;;;;11.04;44.92;101954.47;5020557;27;97342;-72
2021/06/14 05:15:08;;;;;;;11.45;5.15;;;;;;;11.07;44.80;101953.66;5017034;27;99842;-73
2021/06/14 05:17:37;;;;;;;7.78;5.75;;;;;;;11.11;44.78;101950.28;5014041;27;100750;-72
2021/06/14 05:20:07;;;;;;;7.10;5.07;;;;;;;11.16;44.74;101956.66;5018707;27;98400;-73
2021/06/14 05:22:35;;;;;;;12.10;5.47;;;;;;;11.20;44.51;101947.94;5016904;27;96833;-73
2021/06/14 05:25:03;;;;;;;8.90;5.82;;;;;;;11.25;44.76;101941.00;5014908;27;97628;-74
2021/06/14 05:27:31;;;;;;;8.82;5.95;;;;;;;11.31;44.35;101943.00;5015791;27;99592;-73
2021/06/14 05:29:59;;;;;;;7.63;4.95;;;;;;;11.34;44.17;101943.16;5022483;27;97348;-73
2021/06/14 05:32:27;;;;;;;9.68;4.80;;;;;;;11.40;44.09;101946.94;5015289;27;98684;-74
2021/06/14 05:34:57;;;;;;;7.80;5.30;;;;;;;11.46;43.77;101949.84;5022325;27;98340;-76
2021/06/14 05:37:25;;;;;;;8.25;4.50;;;;;;;11.51;43.84;101950.91;5018172;27;99060;-72
2021/06/14 05:39:53;;;;;;;9.90;4.68;;;;;;;11.59;43.78;101949.44;5024047;27;97101;-73
2021/06/14 05:42:20;;;;;;;8.95;4.43;;;;;;;11.69;43.49;101956.88;4999348;28;96889;-74
2021/06/14 05:44:48;;;;;;;6.55;4.57;;;;;;;11.75;43.34;101953.53;5020883;27;99727;-74
2021/06/14 05:47:16;;;;;;;8.63;4.50;;;;;;;11.81;43.20;101949.34;5022795;27;97493;-73
2021/06/14 05:49:44;;;;;;;5.65;4.07;;;;;;;11.88;43.18;101948.69;5021310;27;97361;-75
2021/06/14 05:52:13;;;;;;;6.82;4.47;;;;;;;11.95;42.94;101948.03;4989764;28;97970;-73
2021/06/14 05:54:41;;;;;;;7.65;4.82;;;;;;;12.05;42.89;101952.81;5012371;27;98702;-73
2021/06/14 05:57:09;;;;;;;9.00;4.43;;;;;;;12.10;42.87;101951.22;5017428;27;101564;-77
2021/06/14 05:59:38;;;;;;;7.45;4.38;;;;;;;12.18;42.55;101949.75;5021653;27;97766;-75
2021/06/14 06:02:06;;;;;;;9.57;4.70;;;;;;;12.26;42.46;101941.06;5018980;27;96924;-74
2021/06/14 06:04:34;;;;;;;7.40;5.10;;;;;;;12.32;42.46;101942.19;5020415;27;98099;-74
2021/06/14 06:07:02;;;;;;;10.88;4.90;;;;;;;12.40;42.42;101947.78;5021502;27;100412;-73
2021/06/14 06:09:32;;;;;;;10.30;4.55;;;;;;;12.46;42.09;101939.94;5020920;27;97156;-74
2021/06/14 06:12:00;;;;;;;8.77;4.35;;;;;;;12.52;42.32;101934.81;5020855;27;98149;-75
2021/06/14 06:14:28;;;;;;;6.88;3.97;;;;;;;12.58;41.98;101940.34;5021728;27;97922;-73
2021/06/14 06:16:55;;;;;;;6.70;3.90;;;;;;;12.63;42.00;101936.06;5014120;27;98422;-72
2021/06/14 06:19:23;;;;;;;10.45;3.78;;;;;;;12.66;41.82;101939.72;5019700;27;97384;-74
2021/06/14 06:21:51;;;;;;;9.80;4.57;;;;;;;12.72;41.96;101944.34;5020978;27;97417;-74
2021/06/14 06:24:19;;;;;;;11.32;4.85;;;;;;;12.75;41.79;101937.34;5009630;27;98956;-74
2021/06/14 06:26:48;;;;;;;9.02;4.85;;;;;;;12.81;41.65;101944.63;5019247;27;99712;-73
2021/06/14 06:29:16;;;;;;;4.95;3.53;;;;;;;12.84;41.65;101948.31;5021528;27;97594;-74
2021/06/14 06:31:44;;;;;;;5.75;4.03;;;;;;;12.91;41.36;101946.75;5022757;27;99154;-74
2021/06/14 06:34:12;;;;;;;7.65;4.63;;;;;;;12.95;41.45;101940.59;5021377;27;101180;-73
2021/06/14 06:36:42;;;;;;;4.38;3.83;;;;;;;12.98;41.31;101943.38;5021145;27;97639;-74
2021/06/14 06:39:10;;;;;;;4.28;3.60;;;;;;;13.04;41.35;101936.47;5022846;27;97037;-74
2021/06/14 06:41:38;;;;;;;8.52;3.90;;;;;;;13.10;41.03;101943.78;5005340;27;97817;-74
2021/06/14 06:44:09;;;;;;;7.97;4.20;;;;;;;13.15;41.07;101932.34;5022730;27;97743;-70
2021/06/14 06:46:36;;;;;;;6.53;4.50;;;;;;;13.19;41.07;101936.00;5019267;27;99154;-73
2021/06/14 06:49:04;;;;;;;6.85;3.80;;;;;;;13.24;41.01;101934.38;5002738;27;97403;-71
2021/06/14 06:51:32;;;;;;;9.23;4.50;;;;;;;13.31;40.81;101938.13;5002993;27;97518;-71
2021/06/14 06:54:12;;;;;;;4.65;3.60;;;;;;;13.34;40.75;101941.81;5020830;27;98250;-76
2021/06/14 06:56:48;;;;;;;6.40;3.53;;;;;;;13.36;40.78;101942.75;5024726;27;99759;-70
2021/06/14 06:59:17;;;;;;;7.95;3.88;;;;;;;13.41;40.68;101940.19;5027025;27;97746;-74
2021/06/14 07:01:46;;;;;;;8.98;3.88;;;;;;;13.45;40.68;101947.44;5027108;27;97259;-71
2021/06/14 07:04:14;;;;;;;12.18;4.43;;;;;;;13.48;40.68;101945.75;5028177;27;97624;-71
2021/06/14 07:06:41;;;;;;;6.28;4.13;;;;;;;13.51;40.55;101944.94;5029528;27;97681;-70
2021/06/14 07:09:09;;;;;;;6.72;4.28;;;;;;;13.53;40.38;101949.47;5023675;27;98049;-74
2021/06/14 07:11:38;;;;;;;7.72;4.32;;;;;;;13.58;40.34;101945.16;5022778;27;97560;-70
2021/06/14 07:14:07;;;;;;;9.70;4.90;;;;;;;13.64;40.38;101939.97;5002277;28;98741;-71
2021/06/14 07:16:36;;;;;;;12.25;4.55;;;;;;;13.70;40.08;101950.84;5019158;27;100914;-71
2021/06/14 07:19:04;;;;;;;10.27;4.75;;;;;;;13.73;39.93;101945.56;5019191;27;97294;-70
2021/06/14 07:21:32;;;;;;;8.73;4.30;;;;;;;13.79;40.07;101945.75;5021033;27;97572;-71
2021/06/14 07:24:00;;;;;;;9.95;4.10;;;;;;;13.84;40.05;101935.19;5020024;27;98176;-71
2021/06/14 07:26:29;;;;;;;6.55;3.80;;;;;;;13.92;39.79;101934.50;5020517;27;99433;-72
2021/06/14 07:28:56;;;;;;;5.88;3.95;;;;;;;13.97;39.85;101929.25;5022023;27;97671;-70
2021/06/14 07:31:24;;;;;;;6.45;4.40;;;;;;;14.03;39.80;101935.69;5020087;27;97877;-70
2021/06/14 07:33:57;;;;;;;7.40;4.25;;;;;;;14.11;39.74;101928.78;5016659;27;99430;-72
2021/06/14 07:36:26;;;;;;;7.18;4.47;;;;;;;14.17;39.79;101925.31;5020658;27;97924;-71
2021/06/14 07:38:53;;;;;;;33.38;18.00;;;;;;;14.25;39.72;101931.78;5019779;27;98086;-71
2021/06/14 07:41:21;;;;;;;11.35;5.65;;;;;;;14.49;38.83;101924.31;5013543;27;97390;-69
2021/06/14 07:43:50;;;;;;;9.65;5.30;;;;;;;14.41;39.24;101914.31;5019256;27;100025;-70
2021/06/14 07:46:18;;;;;;;9.25;4.50;;;;;;;14.39;39.31;101908.00;4999997;28;99174;-70
2021/06/14 07:48:46;;;;;;;8.25;4.70;;;;;;;14.37;39.26;101907.94;5018882;27;96817;-70
2021/06/14 07:51:15;;;;;;;9.75;4.78;;;;;;;14.41;39.28;101908.97;5019569;27;97463;-70
2021/06/14 07:53:43;;;;;;;9.57;4.65;;;;;;;14.45;39.25;101903.69;5020497;27;98953;-70
2021/06/14 07:56:12;;;;;;;8.13;4.60;;;;;;;14.51;39.30;101895.81;5023644;27;97836;-69
2021/06/14 07:58:40;;;;;;;18.15;11.15;;;;;;;14.57;39.02;101903.13;5019362;27;97449;-70
2021/06/14 08:01:08;;;;;;;7.43;4.82;;;;;;;14.61;38.98;101902.31;5016912;27;98043;-70
2021/06/14 08:03:36;;;;;;;20.75;5.43;;;;;;;14.65;38.90;101902.41;5019735;27;102304;-69
2021/06/14 08:06:05;;;;;;;8.55;5.50;;;;;;;14.88;38.06;101892.19;5018814;27;97996;-70
2021/06/14 08:08:35;;;;;;;7.25;4.38;;;;;;;14.81;38.13;101888.47;5017805;27;97565;-69
2021/06/14 08:11:03;;;;;;;10.35;5.22;;;;;;;14.84;38.30;101891.22;5019485;27;97087;-69
2021/06/14 08:13:32;;;;;;;7.40;4.93;;;;;;;14.88;38.24;101892.19;5019367;27;97756;-69
2021/06/14 08:16:13;;;;;;;11.43;4.75;;;;;;;14.88;38.33;101895.75;5017411;27;99205;-69
2021/06/14 08:18:44;;;;;;;6.75;4.63;;;;;;;14.89;38.16;101884.19;5012603;27;97858;-69
2021/06/14 08:21:32;;;;;;;8.32;4.85;;;;;;;14.88;38.09;101889.50;4998348;27;97479;-69
2021/06/14 08:26:49;;;;;;;9.55;4.68;;;;;;;14.95;37.89;101891.44;5000090;27;98626;-70
2021/06/14 08:29:17;;;;;;;8.75;5.97;;;;;;;15.23;36.96;101883.06;5017821;27;97911;-71
2021/06/14 08:31:44;;;;;;;7.68;5.60;;;;;;;15.15;37.55;101879.34;5018528;27;96988;-68
2021/06/14 08:34:13;;;;;;;8.77;5.13;;;;;;;15.19;37.59;101874.94;5016066;27;98768;-70
2021/06/14 08:36:42;;;;;;;7.38;5.13;;;;;;;15.24;37.42;101871.47;5023137;27;97729;-69
2021/06/14 08:39:11;;;;;;;11.20;5.88;;;;;;;15.27;37.32;101863.47;5001236;27;97279;-69
2021/06/14 08:41:50;;;;;;;11.63;5.30;;;;;;;15.33;37.21;101862.72;5025414;27;96792;-69
2021/06/14 08:44:18;;;;;;;10.95;5.60;;;;;;;15.36;37.38;101858.31;5025939;27;101060;-74
2021/06/14 08:46:46;;;;;;;10.20;5.00;;;;;;;15.42;37.49;101857.53;5023079;27;101404;-72
2021/06/14 08:49:17;;;;;;;16.55;5.85;;;;;;;15.65;36.31;101848.13;5024075;27;98465;-75
2021/06/14 08:51:45;;;;;;;7.57;4.57;;;;;;;15.59;36.89;101840.88;5039801;27;97827;-73
2021/06/14 08:54:14;;;;;;;9.32;4.60;;;;;;;15.64;36.89;101849.00;4996151;27;100389;-72
2021/06/14 08:56:42;;;;;;;6.93;4.75;;;;;;;15.67;37.13;101839.22;5038429;27;99334;-73
2021/06/14 08:59:11;;;;;;;12.93;6.45;;;;;;;15.71;36.74;101841.09;5023301;27;97375;-72
2021/06/14 09:01:39;;;;;;;7.70;4.70;;;;;;;15.75;36.83;101832.22;5027688;27;97434;-75
2021/06/14 09:04:07;;;;;;;11.77;5.00;;;;;;;15.81;36.62;101831.41;5029796;27;100652;-74
2021/06/14 09:06:35;;;;;;;7.25;4.78;;;;;;;15.81;37.04;101834.09;5015756;27;98300;-75
2021/06/14 09:09:08;;;;;;;18.30;11.50;;;;;;;15.86;37.04;101833.28;5015656;27;97052;-73
2021/06/14 09:11:39;;;;;;;27.90;15.23;;;;;;;15.91;36.53;101822.59;5055487;27;97298;-73
2021/06/14 09:14:16;;;;;;;11.80;5.85;;;;;;;15.96;36.66;101816.44;5029116;27;99254;-74
2021/06/14 09:16:44;;;;;;;9.65;5.65;;;;;;;16.16;35.71;101803.31;5031359;27;100526;-76
2021/06/14 09:19:26;;;;;;;9.68;5.07;;;;;;;16.15;35.99;101806.00;5030673;27;97190;-73
2021/06/14 09:21:56;;;;;;;7.53;5.00;;;;;;;16.36;35.49;101801.81;5050449;27;97586;-72
2021/06/14 09:24:25;;;;;;;21.60;15.57;;;;;;;16.51;35.66;101796.66;5028431;27;99390;-72
2021/06/14 09:26:57;;;;;;;11.18;5.68;;;;;;;16.44;35.86;101802.84;5034062;27;101371;-73
2021/06/14 09:29:30;;;;;;;9.52;4.68;;;;;;;16.40;35.69;101787.56;4997880;27;96857;-70
2021/06/14 09:32:00;;;;;;;9.80;4.28;;;;;;;16.41;35.84;101788.47;5027527;27;97714;-72
2021/06/14 09:34:35;;;;;;;8.45;4.43;;;;;;;16.42;35.39;101790.25;5039005;27;97638;-75
2021/06/14 09:37:05;;;;;;;8.07;4.35;;;;;;;16.45;35.77;101777.75;5030783;27;97711;-73
2021/06/14 09:39:38;;;;;;;8.90;4.97;;;;;;;16.68;34.89;101772.69;5030424;27;97587;-70
2021/06/14 09:42:16;;;;;;;7.72;4.38;;;;;;;16.82;34.22;101769.31;5013171;27;98702;-75
2021/06/14 09:44:45;;;;;;;9.07;4.88;;;;;;;16.95;34.39;101767.63;5025741;27;98829;-74
2021/06/14 09:47:13;;;;;;;4.35;3.45;;;;;;;16.88;34.68;101760.41;5044357;27;98686;-74
2021/06/14 09:49:54;;;;;;;7.75;4.72;;;;;;;17.03;33.54;101758.78;5042270;27;97419;-73
2021/06/14 09:52:26;;;;;;;36.35;25.55;;;;;;;17.17;33.63;101758.91;5014048;27;97840;-71
2021/06/14 09:55:06;;;;;;;9.53;5.67;;;;;;;17.28;33.51;101740.16;5050222;27;99279;-71
2021/06/14 09:57:36;;;;;;;9.23;5.20;;;;;;;17.37;33.39;101733.09;5045665;27;98989;-73
2021/06/14 10:00:09;;;;;;;9.32;4.63;;;;;;;17.48;33.46;101730.50;5049949;27;97551;-75
2021/06/14 10:02:45;;;;;;;8.32;4.75;;;;;;;17.57;33.23;101739.56;5041643;27;97680;-73
2021/06/14 10:05:18;;;;;;;4.93;4.15;;;;;;;17.65;33.27;101731.53;4998380;27;99882;-71
2021/06/14 10:07:47;;;;;;;6.85;5.05;;;;;;;17.57;33.77;101734.19;5044404;27;97714;-73
2021/06/14 10:10:20;;;;;;;8.63;5.00;;;;;;;17.55;34.05;101733.25;5042397;27;99335;-72
2021/06/14 10:12:54;;;;;;;7.10;5.00;;;;;;;17.55;33.69;101727.88;5028249;27;97028;-74
2021/06/14 10:15:29;;;;;;;8.35;4.07;;;;;;;17.54;33.78;101720.72;5041385;27;97723;-73
2021/06/14 10:17:57;;;;;;;10.70;5.25;;;;;;;17.53;34.06;101720.69;5037815;27;97767;-73
2021/06/14 10:20:28;;;;;;;5.55;3.40;;;;;;;17.53;34.00;101713.50;5031147;27;96778;-72
2021/06/14 10:22:57;;;;;;;4.88;3.70;;;;;;;17.56;34.12;101715.34;5031539;27;97712;-75
2021/06/14 10:25:33;;;;;;;8.48;4.03;;;;;;;17.59;33.99;101709.97;5048495;27;99005;-71
2021/06/14 10:28:03;;;;;;;9.02;4.20;;;;;;;17.59;34.01;101702.78;5041227;27;97770;-73
2021/06/14 10:30:31;;;;;;;8.05;4.03;;;;;;;17.62;34.00;101704.63;5036493;27;97939;-72
2021/06/14 10:33:00;;;;;;;6.57;3.40;;;;;;;17.63;34.08;101701.03;5033927;27;97064;-73
2021/06/14 10:35:29;;;;;;;6.10;3.55;;;;;;;17.67;34.05;101697.47;5016089;27;99269;-74
2021/06/14 10:38:01;;;;;;;7.00;3.85;;;;;;;17.68;33.95;101685.78;5035667;27;98006;-72
2021/06/14 10:40:29;;;;;;;9.23;4.25;;;;;;;17.70;34.10;101684.91;5030133;27;97522;-72
2021/06/14 10:42:57;;;;;;;12.40;8.63;;;;;;;17.76;34.01;101689.44;5041808;27;96901;-72
2021/06/14 10:45:30;;;;;;;5.75;4.00;;;;;;;17.80;34.11;101689.44;5025454;27;97791;-75
2021/06/14 10:47:59;;;;;;;34.67;20.88;;;;;;;17.86;33.85;101684.13;5032469;27;99151;-71
2021/06/14 10:50:34;;;;;;;6.75;5.15;;;;;;;17.91;33.95;101676.94;5041960;27;97836;-74
2021/06/14 10:53:02;;;;;;;9.13;3.95;;;;;;;17.96;33.88;101679.69;5032728;27;97006;-70
2021/06/14 10:55:33;;;;;;;5.53;3.20;;;;;;;18.00;33.91;101682.38;5040497;27;98196;-74
2021/06/14 10:58:04;;;;;;;7.47;3.45;;;;;;;18.03;33.68;101670.72;5031494;27;100270;-72
2021/06/14 11:00:36;;;;;;;4.82;3.03;;;;;;;18.05;33.52;101663.59;5033056;27;97263;-71
2021/06/14 11:03:06;;;;;;;4.82;3.13;;;;;;;18.12;33.49;101659.13;5040159;27;98153;-72
2021/06/14 11:05:36;;;;;;;5.10;3.75;;;;;;;18.15;33.66;101659.16;5047633;27;98957;-72
2021/06/14 11:08:14;;;;;;;3.97;3.17;;;;;;;18.18;32.98;101653.75;5032832;27;100886;-72
2021/06/14 11:10:43;;;;;;;5.68;3.67;;;;;;;18.24;33.41;101648.41;5041569;27;97868;-73
2021/06/14 11:13:13;;;;;;;5.10;3.80;;;;;;;18.29;33.55;101642.13;5042643;27;97326;-71
2021/06/14 11:15:44;;;;;;;5.72;3.42;;;;;;;18.35;33.36;101625.97;5028852;27;99278;-72
2021/06/14 11:18:22;;;;;;;3.25;2.92;;;;;;;18.43;32.69;101624.19;5042360;27;100176;-71
2021/06/14 11:20:52;;;;;;;4.60;4.07;;;;;;;18.51;33.39;101633.22;5033103;27;97272;-72
2021/06/14 11:23:23;;;;;;;7.15;3.70;;;;;;;18.50;33.08;101617.00;5032475;27;97643;-73
2021/06/14 11:25:51;;;;;;;4.82;3.63;;;;;;;18.50;33.12;101608.94;5033131;27;99369;-73
2021/06/14 11:28:33;;;;;;;4.95;3.25;;;;;;;18.55;32.68;101609.84;5040237;27;98021;-75
2021/06/14 11:31:14;;;;;;;3.33;3.00;;;;;;;18.62;32.28;101600.88;5015650;27;96857;-74
2021/06/14 11:33:43;;;;;;;6.30;3.85;;;;;;;18.68;33.08;101603.56;5029388;27;98164;-73
2021/06/14 11:36:16;;;;;;;5.28;3.83;;;;;;;18.76;32.57;101602.72;5045052;27;101718;-75
2021/06/14 11:38:57;;;;;;;6.22;3.20;;;;;;;18.83;32.89;101593.72;5029409;27;97811;-72